sensor_id;sensor_type;location;lat;lon;timestamp;temperature;humidity
12948;DHT22;6539;49.476;8.484;2022-09-09T00:05:21;19.10;99.90
12948;DHT22;6539;49.476;8.484;2022-09-09T00:07:55;19.00;99.90
12948;DHT22;6539;49.476;8.484;2022-09-09T00:16:07;19.00;99.90
12948;DHT22;6539;49.476;8.484;2022-09-09T00:18:50;19.00;99.90
12948;DHT22;6539;49.476;8.484;2022-09-09T00:21:18;19.00;99.90
12948;DHT22;6539;49.476;8.484;2022-09-09T00:23:54;19.00;99.90
12948;DHT22;6539;49.476;8.484;2022-09-09T00:26:38;19.00;99.90
12948;DHT22;6539;49.476;8.484;2022-09-09T00:31:33;19.00;99.90
12948;DHT22;6539;49.476;8.484;2022-09-09T00:34:23;18.90;99.90
12948;DHT22;6539;49.476;8.484;2022-09-09T00:36:53;18.90;99.90
12948;DHT22;6539;49.476;8.484;2022-09-09T00:39:36;18.90;99.90
12948;DHT22;6539;49.476;8.484;2022-09-09T00:47:56;19.00;99.90
12948;DHT22;6539;49.476;8.484;2022-09-09T00:50:35;18.90;99.90
12948;DHT22;6539;49.476;8.484;2022-09-09T00:53:51;18.90;99.90
12948;DHT22;6539;49.476;8.484;2022-09-09T00:56:38;18.80;99.90
12948;DHT22;6539;49.476;8.484;2022-09-09T01:11:15;18.90;99.90
12948;DHT22;6539;49.476;8.484;2022-09-09T01:13:52;18.90;99.90
12948;DHT22;6539;49.476;8.484;2022-09-09T01:16:26;19.00;99.90
12948;DHT22;6539;49.476;8.484;2022-09-09T01:18:56;18.90;99.90
12948;DHT22;6539;49.476;8.484;2022-09-09T01:22:01;18.80;99.90
12948;DHT22;6539;49.476;8.484;2022-09-09T01:25:06;18.80;99.90
12948;DHT22;6539;49.476;8.484;2022-09-09T01:27:42;18.80;99.90
12948;DHT22;6539;49.476;8.484;2022-09-09T01:30:11;18.80;99.90
12948;DHT22;6539;49.476;8.484;2022-09-09T01:32:42;18.90;99.90
12948;DHT22;6539;49.476;8.484;2022-09-09T01:38:17;18.80;99.90
12948;DHT22;6539;49.476;8.484;2022-09-09T01:40:46;18.70;99.90
12948;DHT22;6539;49.476;8.484;2022-09-09T01:43:12;18.80;99.90
12948;DHT22;6539;49.476;8.484;2022-09-09T01:45:42;18.80;99.90
12948;DHT22;6539;49.476;8.484;2022-09-09T01:48:11;18.70;99.90
12948;DHT22;6539;49.476;8.484;2022-09-09T01:50:39;18.80;99.90
12948;DHT22;6539;49.476;8.484;2022-09-09T01:53:04;18.80;99.90
12948;DHT22;6539;49.476;8.484;2022-09-09T01:55:42;18.80;99.90
12948;DHT22;6539;49.476;8.484;2022-09-09T02:04:18;18.80;99.90
12948;DHT22;6539;49.476;8.484;2022-09-09T02:07:12;18.70;99.90
12948;DHT22;6539;49.476;8.484;2022-09-09T02:09:50;18.70;99.90
12948;DHT22;6539;49.476;8.484;2022-09-09T02:12:26;18.70;99.90
12948;DHT22;6539;49.476;8.484;2022-09-09T02:15:03;18.70;99.90
12948;DHT22;6539;49.476;8.484;2022-09-09T02:17:36;18.60;99.90
12948;DHT22;6539;49.476;8.484;2022-09-09T02:20:08;18.70;99.90
12948;DHT22;6539;49.476;8.484;2022-09-09T02:22:39;18.60;99.90
12948;DHT22;6539;49.476;8.484;2022-09-09T02:25:12;18.60;99.90
12948;DHT22;6539;49.476;8.484;2022-09-09T02:27:43;18.60;99.90
12948;DHT22;6539;49.476;8.484;2022-09-09T02:30:15;18.60;99.90
12948;DHT22;6539;49.476;8.484;2022-09-09T02:32:45;18.60;99.90
12948;DHT22;6539;49.476;8.484;2022-09-09T02:35:15;18.60;99.90
12948;DHT22;6539;49.476;8.484;2022-09-09T02:37:46;18.60;99.90
12948;DHT22;6539;49.476;8.484;2022-09-09T02:40:13;18.50;99.90
12948;DHT22;6539;49.476;8.484;2022-09-09T02:42:45;18.50;99.90
12948;DHT22;6539;49.476;8.484;2022-09-09T02:45:15;18.40;99.90
12948;DHT22;6539;49.476;8.484;2022-09-09T02:50:45;18.50;99.90
12948;DHT22;6539;49.476;8.484;2022-09-09T02:53:22;18.50;99.90
12948;DHT22;6539;49.476;8.484;2022-09-09T02:56:04;18.50;99.90
12948;DHT22;6539;49.476;8.484;2022-09-09T02:58:35;18.40;99.90
12948;DHT22;6539;49.476;8.484;2022-09-09T03:01:02;18.40;99.90
12948;DHT22;6539;49.476;8.484;2022-09-09T03:03:34;17.00;99.90
12948;DHT22;6539;49.476;8.484;2022-09-09T03:06:01;18.40;99.90
12948;DHT22;6539;49.476;8.484;2022-09-09T03:08:29;18.30;99.90
12948;DHT22;6539;49.476;8.484;2022-09-09T03:10:55;18.30;99.90
12948;DHT22;6539;49.476;8.484;2022-09-09T03:13:21;18.30;99.90
12948;DHT22;6539;49.476;8.484;2022-09-09T03:15:48;18.30;99.90
12948;DHT22;6539;49.476;8.484;2022-09-09T03:18:14;18.20;99.90
12948;DHT22;6539;49.476;8.484;2022-09-09T03:20:39;18.10;99.90
12948;DHT22;6539;49.476;8.484;2022-09-09T03:23:07;18.10;99.90
12948;DHT22;6539;49.476;8.484;2022-09-09T03:25:33;18.10;99.90
12948;DHT22;6539;49.476;8.484;2022-09-09T03:28:01;18.00;99.90
12948;DHT22;6539;49.476;8.484;2022-09-09T03:30:28;18.10;99.90
12948;DHT22;6539;49.476;8.484;2022-09-09T03:32:53;18.10;99.90
12948;DHT22;6539;49.476;8.484;2022-09-09T03:35:22;18.10;99.90
12948;DHT22;6539;49.476;8.484;2022-09-09T03:37:50;18.40;99.90
12948;DHT22;6539;49.476;8.484;2022-09-09T03:40:16;18.20;99.90
12948;DHT22;6539;49.476;8.484;2022-09-09T03:42:43;18.10;99.90
12948;DHT22;6539;49.476;8.484;2022-09-09T03:45:11;18.00;99.90
12948;DHT22;6539;49.476;8.484;2022-09-09T03:47:40;18.10;99.90
12948;DHT22;6539;49.476;8.484;2022-09-09T03:50:07;17.80;99.90
12948;DHT22;6539;49.476;8.484;2022-09-09T03:52:38;18.10;99.90
12948;DHT22;6539;49.476;8.484;2022-09-09T03:55:06;17.90;99.90
12948;DHT22;6539;49.476;8.484;2022-09-09T03:57:33;18.00;99.90
12948;DHT22;6539;49.476;8.484;2022-09-09T04:00:05;18.10;99.90
12948;DHT22;6539;49.476;8.484;2022-09-09T04:02:32;18.00;99.90
12948;DHT22;6539;49.476;8.484;2022-09-09T04:05:00;18.00;99.90
12948;DHT22;6539;49.476;8.484;2022-09-09T04:07:29;18.00;99.90
12948;DHT22;6539;49.476;8.484;2022-09-09T04:09:55;18.00;99.90
12948;DHT22;6539;49.476;8.484;2022-09-09T04:12:22;18.10;99.90
12948;DHT22;6539;49.476;8.484;2022-09-09T04:14:48;18.00;99.90
12948;DHT22;6539;49.476;8.484;2022-09-09T04:17:13;17.90;99.90
12948;DHT22;6539;49.476;8.484;2022-09-09T04:19:45;17.90;99.90
12948;DHT22;6539;49.476;8.484;2022-09-09T04:22:14;17.90;99.90
12948;DHT22;6539;49.476;8.484;2022-09-09T04:24:40;17.80;99.90
12948;DHT22;6539;49.476;8.484;2022-09-09T04:27:05;17.80;99.90
12948;DHT22;6539;49.476;8.484;2022-09-09T04:29:33;17.80;99.90
12948;DHT22;6539;49.476;8.484;2022-09-09T04:32:02;17.80;99.90
12948;DHT22;6539;49.476;8.484;2022-09-09T04:34:27;17.80;99.90
12948;DHT22;6539;49.476;8.484;2022-09-09T04:36:58;17.70;99.90
12948;DHT22;6539;49.476;8.484;2022-09-09T04:39:24;17.70;99.90
12948;DHT22;6539;49.476;8.484;2022-09-09T04:41:50;17.70;99.90
12948;DHT22;6539;49.476;8.484;2022-09-09T04:44:16;17.70;99.90
12948;DHT22;6539;49.476;8.484;2022-09-09T04:46:42;17.60;99.90
12948;DHT22;6539;49.476;8.484;2022-09-09T04:49:10;17.90;99.90
12948;DHT22;6539;49.476;8.484;2022-09-09T04:51:36;17.90;99.90
12948;DHT22;6539;49.476;8.484;2022-09-09T04:54:01;17.80;99.90
12948;DHT22;6539;49.476;8.484;2022-09-09T04:56:31;18.00;99.90
12948;DHT22;6539;49.476;8.484;2022-09-09T04:58:56;18.20;99.90
12948;DHT22;6539;49.476;8.484;2022-09-09T05:01:26;17.90;99.90
12948;DHT22;6539;49.476;8.484;2022-09-09T05:03:54;17.80;99.90
12948;DHT22;6539;49.476;8.484;2022-09-09T05:06:21;17.70;99.90
12948;DHT22;6539;49.476;8.484;2022-09-09T05:08:48;17.80;99.90
12948;DHT22;6539;49.476;8.484;2022-09-09T05:13:51;18.30;99.90
12948;DHT22;6539;49.476;8.484;2022-09-09T05:16:19;18.20;99.90
12948;DHT22;6539;49.476;8.484;2022-09-09T05:18:46;18.20;99.90
12948;DHT22;6539;49.476;8.484;2022-09-09T05:21:14;18.00;99.90
12948;DHT22;6539;49.476;8.484;2022-09-09T05:23:47;18.10;99.90
12948;DHT22;6539;49.476;8.484;2022-09-09T05:26:21;18.30;99.90
12948;DHT22;6539;49.476;8.484;2022-09-09T05:28:50;18.00;99.90
12948;DHT22;6539;49.476;8.484;2022-09-09T05:31:17;18.20;99.90
12948;DHT22;6539;49.476;8.484;2022-09-09T05:33:45;18.10;99.90
12948;DHT22;6539;49.476;8.484;2022-09-09T05:36:16;18.00;99.90
12948;DHT22;6539;49.476;8.484;2022-09-09T05:38:44;17.70;99.90
12948;DHT22;6539;49.476;8.484;2022-09-09T05:41:13;17.60;99.90
12948;DHT22;6539;49.476;8.484;2022-09-09T05:43:43;17.70;99.90
12948;DHT22;6539;49.476;8.484;2022-09-09T05:46:16;17.60;99.90
12948;DHT22;6539;49.476;8.484;2022-09-09T05:48:45;17.80;99.90
12948;DHT22;6539;49.476;8.484;2022-09-09T05:51:21;17.80;99.90
12948;DHT22;6539;49.476;8.484;2022-09-09T05:53:49;18.00;99.90
12948;DHT22;6539;49.476;8.484;2022-09-09T05:56:22;18.00;99.90
12948;DHT22;6539;49.476;8.484;2022-09-09T05:58:51;17.90;99.90
12948;DHT22;6539;49.476;8.484;2022-09-09T06:01:29;17.70;99.90
12948;DHT22;6539;49.476;8.484;2022-09-09T06:03:59;17.80;99.90
12948;DHT22;6539;49.476;8.484;2022-09-09T06:06:36;18.10;99.90
12948;DHT22;6539;49.476;8.484;2022-09-09T06:09:06;18.10;99.90
12948;DHT22;6539;49.476;8.484;2022-09-09T06:11:36;17.70;99.90
12948;DHT22;6539;49.476;8.484;2022-09-09T06:14:04;17.80;99.90
12948;DHT22;6539;49.476;8.484;2022-09-09T06:16:31;18.10;99.90
12948;DHT22;6539;49.476;8.484;2022-09-09T06:19:03;18.40;99.90
12948;DHT22;6539;49.476;8.484;2022-09-09T06:21:38;18.30;99.90
12948;DHT22;6539;49.476;8.484;2022-09-09T06:24:06;18.50;99.90
12948;DHT22;6539;49.476;8.484;2022-09-09T06:26:37;18.90;99.90
12948;DHT22;6539;49.476;8.484;2022-09-09T06:29:09;19.30;99.90
12948;DHT22;6539;49.476;8.484;2022-09-09T06:31:38;19.20;99.90
12948;DHT22;6539;49.476;8.484;2022-09-09T06:34:06;19.10;99.90
12948;DHT22;6539;49.476;8.484;2022-09-09T06:36:38;18.90;99.90
12948;DHT22;6539;49.476;8.484;2022-09-09T06:39:07;18.80;99.90
12948;DHT22;6539;49.476;8.484;2022-09-09T06:41:36;18.70;99.90
12948;DHT22;6539;49.476;8.484;2022-09-09T06:44:03;18.80;99.90
12948;DHT22;6539;49.476;8.484;2022-09-09T06:46:37;18.60;99.90
12948;DHT22;6539;49.476;8.484;2022-09-09T06:49:05;18.60;99.90
12948;DHT22;6539;49.476;8.484;2022-09-09T06:51:36;18.70;99.90
12948;DHT22;6539;49.476;8.484;2022-09-09T06:54:08;18.70;99.90
12948;DHT22;6539;49.476;8.484;2022-09-09T06:56:39;18.90;99.90
12948;DHT22;6539;49.476;8.484;2022-09-09T06:59:07;18.90;99.90
12948;DHT22;6539;49.476;8.484;2022-09-09T07:01:38;18.90;99.90
12948;DHT22;6539;49.476;8.484;2022-09-09T07:04:18;19.00;99.90
12948;DHT22;6539;49.476;8.484;2022-09-09T07:06:45;19.10;99.90
12948;DHT22;6539;49.476;8.484;2022-09-09T07:09:13;19.00;99.90
12948;DHT22;6539;49.476;8.484;2022-09-09T07:11:43;18.70;99.90
12948;DHT22;6539;49.476;8.484;2022-09-09T07:14:12;18.70;99.90
12948;DHT22;6539;49.476;8.484;2022-09-09T07:16:39;18.80;99.90
12948;DHT22;6539;49.476;8.484;2022-09-09T07:19:07;18.90;99.90
12948;DHT22;6539;49.476;8.484;2022-09-09T07:21:35;19.00;99.90
12948;DHT22;6539;49.476;8.484;2022-09-09T07:24:01;19.90;99.90
12948;DHT22;6539;49.476;8.484;2022-09-09T07:26:30;19.70;99.90
12948;DHT22;6539;49.476;8.484;2022-09-09T07:28:57;19.70;99.90
12948;DHT22;6539;49.476;8.484;2022-09-09T07:31:34;19.60;99.90
12948;DHT22;6539;49.476;8.484;2022-09-09T07:34:02;19.60;99.90
12948;DHT22;6539;49.476;8.484;2022-09-09T07:36:34;19.60;99.90
12948;DHT22;6539;49.476;8.484;2022-09-09T07:39:09;19.60;99.90
12948;DHT22;6539;49.476;8.484;2022-09-09T07:41:44;19.50;99.90
12948;DHT22;6539;49.476;8.484;2022-09-09T07:44:14;19.70;99.90
12948;DHT22;6539;49.476;8.484;2022-09-09T07:46:42;19.70;99.90
12948;DHT22;6539;49.476;8.484;2022-09-09T07:49:11;19.60;99.90
12948;DHT22;6539;49.476;8.484;2022-09-09T07:51:42;19.70;99.90
12948;DHT22;6539;49.476;8.484;2022-09-09T07:54:12;19.60;99.90
12948;DHT22;6539;49.476;8.484;2022-09-09T07:56:43;19.60;99.90
12948;DHT22;6539;49.476;8.484;2022-09-09T07:59:08;19.70;99.90
12948;DHT22;6539;49.476;8.484;2022-09-09T08:01:55;19.70;99.90
12948;DHT22;6539;49.476;8.484;2022-09-09T08:04:26;19.90;99.90
12948;DHT22;6539;49.476;8.484;2022-09-09T08:06:59;19.80;99.90
12948;DHT22;6539;49.476;8.484;2022-09-09T08:09:27;20.10;99.90
12948;DHT22;6539;49.476;8.484;2022-09-09T08:11:57;20.30;99.90
12948;DHT22;6539;49.476;8.484;2022-09-09T08:14:24;20.30;99.90
12948;DHT22;6539;49.476;8.484;2022-09-09T08:16:50;21.00;99.90
12948;DHT22;6539;49.476;8.484;2022-09-09T08:19:16;20.90;99.90
12948;DHT22;6539;49.476;8.484;2022-09-09T08:21:43;20.90;99.90
12948;DHT22;6539;49.476;8.484;2022-09-09T08:24:11;21.00;99.90
12948;DHT22;6539;49.476;8.484;2022-09-09T08:26:44;20.80;99.90
12948;DHT22;6539;49.476;8.484;2022-09-09T08:29:13;20.40;99.90
12948;DHT22;6539;49.476;8.484;2022-09-09T08:31:50;20.30;99.90
12948;DHT22;6539;49.476;8.484;2022-09-09T08:34:18;20.10;99.90
12948;DHT22;6539;49.476;8.484;2022-09-09T08:36:48;20.00;99.90
12948;DHT22;6539;49.476;8.484;2022-09-09T08:39:18;20.00;99.90
12948;DHT22;6539;49.476;8.484;2022-09-09T08:45:12;20.50;99.90
12948;DHT22;6539;49.476;8.484;2022-09-09T08:48:15;20.50;99.90
12948;DHT22;6539;49.476;8.484;2022-09-09T08:50:54;20.80;99.90
12948;DHT22;6539;49.476;8.484;2022-09-09T08:53:39;20.80;99.90
12948;DHT22;6539;49.476;8.484;2022-09-09T08:56:16;20.90;99.90
12948;DHT22;6539;49.476;8.484;2022-09-09T08:58:49;21.00;99.90
12948;DHT22;6539;49.476;8.484;2022-09-09T09:01:41;21.10;99.90
12948;DHT22;6539;49.476;8.484;2022-09-09T09:04:39;20.90;99.90
12948;DHT22;6539;49.476;8.484;2022-09-09T09:12:42;21.30;99.90
12948;DHT22;6539;49.476;8.484;2022-09-09T09:15:38;21.40;99.90
12948;DHT22;6539;49.476;8.484;2022-09-09T09:18:07;23.20;99.90
12948;DHT22;6539;49.476;8.484;2022-09-09T09:23:24;23.10;99.90
12948;DHT22;6539;49.476;8.484;2022-09-09T09:25:59;23.60;99.90
12948;DHT22;6539;49.476;8.484;2022-09-09T09:28:30;23.80;99.90
12948;DHT22;6539;49.476;8.484;2022-09-09T09:31:01;24.10;99.90
12948;DHT22;6539;49.476;8.484;2022-09-09T09:36:09;23.90;99.90
12948;DHT22;6539;49.476;8.484;2022-09-09T09:38:36;23.80;99.90
12948;DHT22;6539;49.476;8.484;2022-09-09T09:41:03;23.50;99.90
12948;DHT22;6539;49.476;8.484;2022-09-09T09:43:39;23.40;99.90
12948;DHT22;6539;49.476;8.484;2022-09-09T09:46:20;23.20;99.90
12948;DHT22;6539;49.476;8.484;2022-09-09T09:49:05;23.10;99.90
12948;DHT22;6539;49.476;8.484;2022-09-09T09:51:35;22.60;99.90
12948;DHT22;6539;49.476;8.484;2022-09-09T09:54:28;22.30;99.90
12948;DHT22;6539;49.476;8.484;2022-09-09T09:57:06;22.00;99.90
12948;DHT22;6539;49.476;8.484;2022-09-09T09:59:42;21.90;99.90
12948;DHT22;6539;49.476;8.484;2022-09-09T10:05:01;20.50;99.90
12948;DHT22;6539;49.476;8.484;2022-09-09T10:07:28;19.50;99.90
12948;DHT22;6539;49.476;8.484;2022-09-09T10:09:58;19.60;99.90
12948;DHT22;6539;49.476;8.484;2022-09-09T10:21:02;19.80;99.90
12948;DHT22;6539;49.476;8.484;2022-09-09T10:23:56;20.20;99.90
12948;DHT22;6539;49.476;8.484;2022-09-09T10:32:55;22.20;99.90
12948;DHT22;6539;49.476;8.484;2022-09-09T10:39:04;22.90;99.90
12948;DHT22;6539;49.476;8.484;2022-09-09T10:45:27;23.50;99.90
12948;DHT22;6539;49.476;8.484;2022-09-09T10:48:02;24.30;99.90
12948;DHT22;6539;49.476;8.484;2022-09-09T10:53:48;23.80;99.90
12948;DHT22;6539;49.476;8.484;2022-09-09T10:56:28;24.10;99.90
12948;DHT22;6539;49.476;8.484;2022-09-09T10:58:57;24.10;99.90
12948;DHT22;6539;49.476;8.484;2022-09-09T11:01:43;23.90;99.90
12948;DHT22;6539;49.476;8.484;2022-09-09T11:04:27;23.90;99.90
12948;DHT22;6539;49.476;8.484;2022-09-09T11:07:04;24.10;99.90
12948;DHT22;6539;49.476;8.484;2022-09-09T11:09:41;24.30;99.90
12948;DHT22;6539;49.476;8.484;2022-09-09T11:12:18;23.90;99.90
12948;DHT22;6539;49.476;8.484;2022-09-09T11:15:04;23.50;99.90
12948;DHT22;6539;49.476;8.484;2022-09-09T11:17:40;23.80;99.90
12948;DHT22;6539;49.476;8.484;2022-09-09T11:20:13;22.90;99.90
12948;DHT22;6539;49.476;8.484;2022-09-09T11:22:50;23.40;99.90
12948;DHT22;6539;49.476;8.484;2022-09-09T11:25:42;24.00;99.90
12948;DHT22;6539;49.476;8.484;2022-09-09T11:42:24;23.90;99.90
12948;DHT22;6539;49.476;8.484;2022-09-09T11:44:50;23.50;99.90
12948;DHT22;6539;49.476;8.484;2022-09-09T11:52:44;23.50;99.90
12948;DHT22;6539;49.476;8.484;2022-09-09T11:55:32;23.50;99.90
12948;DHT22;6539;49.476;8.484;2022-09-09T12:00:46;23.50;99.90
12948;DHT22;6539;49.476;8.484;2022-09-09T12:06:28;23.50;99.90
12948;DHT22;6539;49.476;8.484;2022-09-09T12:09:29;23.50;99.90
12948;DHT22;6539;49.476;8.484;2022-09-09T12:17:17;23.30;99.90
12948;DHT22;6539;49.476;8.484;2022-09-09T12:19:47;23.30;99.90
12948;DHT22;6539;49.476;8.484;2022-09-09T12:22:37;23.50;99.90
12948;DHT22;6539;49.476;8.484;2022-09-09T12:34:46;23.00;99.90
12948;DHT22;6539;49.476;8.484;2022-09-09T12:37:56;23.10;99.90
12948;DHT22;6539;49.476;8.484;2022-09-09T12:40:32;23.10;99.90
12948;DHT22;6539;49.476;8.484;2022-09-09T12:43:20;23.20;99.90
12948;DHT22;6539;49.476;8.484;2022-09-09T12:45:49;23.40;99.90
12948;DHT22;6539;49.476;8.484;2022-09-09T12:48:27;23.30;99.90
12948;DHT22;6539;49.476;8.484;2022-09-09T12:51:15;23.00;99.90
12948;DHT22;6539;49.476;8.484;2022-09-09T12:53:44;22.60;99.90
12948;DHT22;6539;49.476;8.484;2022-09-09T12:56:27;22.60;99.90
12948;DHT22;6539;49.476;8.484;2022-09-09T12:58:57;22.70;99.90
12948;DHT22;6539;49.476;8.484;2022-09-09T13:01:33;22.60;99.90
12948;DHT22;6539;49.476;8.484;2022-09-09T13:04:01;22.80;99.90
12948;DHT22;6539;49.476;8.484;2022-09-09T13:06:32;22.80;99.90
12948;DHT22;6539;49.476;8.484;2022-09-09T13:09:01;23.20;99.90
12948;DHT22;6539;49.476;8.484;2022-09-09T13:14:25;23.30;99.90
12948;DHT22;6539;49.476;8.484;2022-09-09T13:17:00;23.20;99.90
12948;DHT22;6539;49.476;8.484;2022-09-09T13:19:33;23.10;99.90
12948;DHT22;6539;49.476;8.484;2022-09-09T13:22:36;23.10;99.90
12948;DHT22;6539;49.476;8.484;2022-09-09T13:25:23;22.90;99.90
12948;DHT22;6539;49.476;8.484;2022-09-09T13:27:57;22.80;99.90
12948;DHT22;6539;49.476;8.484;2022-09-09T13:35:50;22.20;99.90
12948;DHT22;6539;49.476;8.484;2022-09-09T13:38:28;21.50;99.90
12948;DHT22;6539;49.476;8.484;2022-09-09T13:41:04;21.20;99.90
12948;DHT22;6539;49.476;8.484;2022-09-09T13:43:37;21.00;99.90
12948;DHT22;6539;49.476;8.484;2022-09-09T13:46:39;21.00;99.90
12948;DHT22;6539;49.476;8.484;2022-09-09T13:51:36;21.20;99.90
12948;DHT22;6539;49.476;8.484;2022-09-09T13:54:16;21.50;99.90
12948;DHT22;6539;49.476;8.484;2022-09-09T13:56:44;21.70;99.90
12948;DHT22;6539;49.476;8.484;2022-09-09T13:59:17;21.70;99.90
12948;DHT22;6539;49.476;8.484;2022-09-09T14:01:45;21.70;99.90
12948;DHT22;6539;49.476;8.484;2022-09-09T14:04:18;21.60;99.90
12948;DHT22;6539;49.476;8.484;2022-09-09T14:06:46;21.50;99.90
12948;DHT22;6539;49.476;8.484;2022-09-09T14:09:17;21.50;99.90
12948;DHT22;6539;49.476;8.484;2022-09-09T14:11:44;21.50;99.90
12948;DHT22;6539;49.476;8.484;2022-09-09T14:14:13;21.50;99.90
12948;DHT22;6539;49.476;8.484;2022-09-09T14:16:40;21.50;99.90
12948;DHT22;6539;49.476;8.484;2022-09-09T14:19:07;21.60;99.90
12948;DHT22;6539;49.476;8.484;2022-09-09T14:21:33;21.60;99.90
12948;DHT22;6539;49.476;8.484;2022-09-09T14:23:59;21.60;99.90
12948;DHT22;6539;49.476;8.484;2022-09-09T14:26:28;21.70;99.90
12948;DHT22;6539;49.476;8.484;2022-09-09T14:28:55;21.60;99.90
12948;DHT22;6539;49.476;8.484;2022-09-09T14:31:22;21.50;99.90
12948;DHT22;6539;49.476;8.484;2022-09-09T14:33:49;21.40;99.90
12948;DHT22;6539;49.476;8.484;2022-09-09T14:38:45;21.60;99.90
12948;DHT22;6539;49.476;8.484;2022-09-09T14:41:12;21.60;99.90
12948;DHT22;6539;49.476;8.484;2022-09-09T14:43:42;21.40;99.90
12948;DHT22;6539;49.476;8.484;2022-09-09T14:46:13;21.40;99.90
12948;DHT22;6539;49.476;8.484;2022-09-09T14:48:40;21.30;99.90
12948;DHT22;6539;49.476;8.484;2022-09-09T14:51:14;21.30;99.90
12948;DHT22;6539;49.476;8.484;2022-09-09T14:53:43;21.30;99.90
12948;DHT22;6539;49.476;8.484;2022-09-09T14:56:18;21.20;99.90
12948;DHT22;6539;49.476;8.484;2022-09-09T14:58:49;21.20;99.90
12948;DHT22;6539;49.476;8.484;2022-09-09T15:01:19;21.20;99.90
12948;DHT22;6539;49.476;8.484;2022-09-09T15:03:58;21.10;99.90
12948;DHT22;6539;49.476;8.484;2022-09-09T15:06:30;20.90;99.90
12948;DHT22;6539;49.476;8.484;2022-09-09T15:08:59;20.90;99.90
12948;DHT22;6539;49.476;8.484;2022-09-09T15:11:30;21.20;99.90
12948;DHT22;6539;49.476;8.484;2022-09-09T15:14:03;21.40;99.90
12948;DHT22;6539;49.476;8.484;2022-09-09T15:16:32;21.40;99.90
12948;DHT22;6539;49.476;8.484;2022-09-09T15:19:00;20.80;99.90
12948;DHT22;6539;49.476;8.484;2022-09-09T15:21:34;20.70;99.90
12948;DHT22;6539;49.476;8.484;2022-09-09T15:24:03;20.40;99.90
12948;DHT22;6539;49.476;8.484;2022-09-09T15:26:30;20.00;99.90
12948;DHT22;6539;49.476;8.484;2022-09-09T15:28:56;20.80;99.90
12948;DHT22;6539;49.476;8.484;2022-09-09T15:31:31;20.00;99.90
12948;DHT22;6539;49.476;8.484;2022-09-09T15:33:59;20.10;99.90
12948;DHT22;6539;49.476;8.484;2022-09-09T15:38:58;20.50;99.90
12948;DHT22;6539;49.476;8.484;2022-09-09T15:41:25;20.70;99.90
12948;DHT22;6539;49.476;8.484;2022-09-09T15:43:53;20.60;99.90
12948;DHT22;6539;49.476;8.484;2022-09-09T15:51:36;20.20;99.90
12948;DHT22;6539;49.476;8.484;2022-09-09T15:54:03;20.10;99.90
12948;DHT22;6539;49.476;8.484;2022-09-09T15:56:30;19.80;99.90
12948;DHT22;6539;49.476;8.484;2022-09-09T15:59:00;20.00;99.90
12948;DHT22;6539;49.476;8.484;2022-09-09T16:01:29;20.00;99.90
12948;DHT22;6539;49.476;8.484;2022-09-09T16:03:57;20.30;99.90
12948;DHT22;6539;49.476;8.484;2022-09-09T16:06:29;20.40;99.90
12948;DHT22;6539;49.476;8.484;2022-09-09T16:08:56;19.90;99.90
12948;DHT22;6539;49.476;8.484;2022-09-09T16:11:32;20.30;99.90
12948;DHT22;6539;49.476;8.484;2022-09-09T16:14:01;19.90;99.90
12948;DHT22;6539;49.476;8.484;2022-09-09T16:16:29;19.90;99.90
12948;DHT22;6539;49.476;8.484;2022-09-09T16:19:02;19.90;99.90
12948;DHT22;6539;49.476;8.484;2022-09-09T16:21:37;19.40;99.90
12948;DHT22;6539;49.476;8.484;2022-09-09T16:24:06;19.20;99.90
12948;DHT22;6539;49.476;8.484;2022-09-09T16:26:38;18.80;99.90
12948;DHT22;6539;49.476;8.484;2022-09-09T16:29:08;18.90;99.90
12948;DHT22;6539;49.476;8.484;2022-09-09T16:31:36;18.80;99.90
12948;DHT22;6539;49.476;8.484;2022-09-09T16:34:02;18.90;99.90
12948;DHT22;6539;49.476;8.484;2022-09-09T16:36:33;18.70;99.90
12948;DHT22;6539;49.476;8.484;2022-09-09T16:39:09;19.30;99.90
12948;DHT22;6539;49.476;8.484;2022-09-09T16:41:39;19.10;99.90
12948;DHT22;6539;49.476;8.484;2022-09-09T16:44:08;19.30;99.90
12948;DHT22;6539;49.476;8.484;2022-09-09T16:46:40;19.90;99.90
12948;DHT22;6539;49.476;8.484;2022-09-09T16:49:11;19.70;99.90
12948;DHT22;6539;49.476;8.484;2022-09-09T16:51:41;20.30;99.90
12948;DHT22;6539;49.476;8.484;2022-09-09T16:54:09;20.00;99.90
12948;DHT22;6539;49.476;8.484;2022-09-09T16:56:38;20.00;99.90
12948;DHT22;6539;49.476;8.484;2022-09-09T16:59:19;20.10;99.90
12948;DHT22;6539;49.476;8.484;2022-09-09T17:01:51;20.10;99.90
12948;DHT22;6539;49.476;8.484;2022-09-09T17:04:20;20.00;99.90
12948;DHT22;6539;49.476;8.484;2022-09-09T17:06:52;19.90;99.90
12948;DHT22;6539;49.476;8.484;2022-09-09T17:09:23;19.80;99.90
12948;DHT22;6539;49.476;8.484;2022-09-09T17:11:55;19.60;99.90
12948;DHT22;6539;49.476;8.484;2022-09-09T17:14:24;19.60;99.90
12948;DHT22;6539;49.476;8.484;2022-09-09T17:16:52;19.40;99.90
12948;DHT22;6539;49.476;8.484;2022-09-09T17:19:18;19.50;99.90
12948;DHT22;6539;49.476;8.484;2022-09-09T17:21:46;19.50;99.90
12948;DHT22;6539;49.476;8.484;2022-09-09T17:24:15;19.70;99.90
12948;DHT22;6539;49.476;8.484;2022-09-09T17:26:41;19.40;99.90
12948;DHT22;6539;49.476;8.484;2022-09-09T17:29:07;19.50;99.90
12948;DHT22;6539;49.476;8.484;2022-09-09T17:31:36;19.40;99.90
12948;DHT22;6539;49.476;8.484;2022-09-09T17:34:08;19.30;99.90
12948;DHT22;6539;49.476;8.484;2022-09-09T17:36:34;19.40;99.90
12948;DHT22;6539;49.476;8.484;2022-09-09T17:39:04;19.20;99.90
12948;DHT22;6539;49.476;8.484;2022-09-09T17:41:33;19.20;99.90
12948;DHT22;6539;49.476;8.484;2022-09-09T17:44:02;19.20;99.90
12948;DHT22;6539;49.476;8.484;2022-09-09T17:46:34;19.10;99.90
12948;DHT22;6539;49.476;8.484;2022-09-09T17:49:07;19.20;99.90
12948;DHT22;6539;49.476;8.484;2022-09-09T17:51:36;19.50;99.90
12948;DHT22;6539;49.476;8.484;2022-09-09T17:54:09;19.00;99.90
12948;DHT22;6539;49.476;8.484;2022-09-09T17:56:38;19.60;99.90
12948;DHT22;6539;49.476;8.484;2022-09-09T17:59:07;19.70;99.90
12948;DHT22;6539;49.476;8.484;2022-09-09T18:01:38;19.40;99.90
12948;DHT22;6539;49.476;8.484;2022-09-09T18:04:07;19.00;99.90
12948;DHT22;6539;49.476;8.484;2022-09-09T18:06:41;18.60;99.90
12948;DHT22;6539;49.476;8.484;2022-09-09T18:09:15;19.60;99.90
12948;DHT22;6539;49.476;8.484;2022-09-09T18:11:45;19.70;99.90
12948;DHT22;6539;49.476;8.484;2022-09-09T18:14:20;20.20;99.90
12948;DHT22;6539;49.476;8.484;2022-09-09T18:16:50;20.20;99.90
12948;DHT22;6539;49.476;8.484;2022-09-09T18:19:22;20.00;99.90
12948;DHT22;6539;49.476;8.484;2022-09-09T18:22:02;19.60;99.90
12948;DHT22;6539;49.476;8.484;2022-09-09T18:24:29;19.30;99.90
12948;DHT22;6539;49.476;8.484;2022-09-09T18:26:56;19.60;99.90
12948;DHT22;6539;49.476;8.484;2022-09-09T18:29:23;19.30;99.90
12948;DHT22;6539;49.476;8.484;2022-09-09T18:31:53;19.70;99.90
12948;DHT22;6539;49.476;8.484;2022-09-09T18:34:22;20.00;99.90
12948;DHT22;6539;49.476;8.484;2022-09-09T18:36:59;19.90;99.90
12948;DHT22;6539;49.476;8.484;2022-09-09T18:39:30;19.90;99.90
12948;DHT22;6539;49.476;8.484;2022-09-09T18:41:58;19.90;99.90
12948;DHT22;6539;49.476;8.484;2022-09-09T18:44:30;19.70;99.90